Time;durP1;ratioP1;P1;durP2;ratioP2;P2;SDS_P1;SDS_P2;PMS_P1;PMS_P2;Temp;Humidity;BMP_temperature;BMP_pressure;BME280_temperature;BME280_humidity;BME280_pressure;Samples;Min_cycle;Max_cycle;Signal;HPM_P1;HPM_P2
2021/10/10 00:02:19;;;;;;;16.58;11.02;;;;;;;;;;5031532;28;20048;-45
2021/10/10 00:04:46;;;;;;;20.90;11.20;;;;;;;;;;5031715;28;20046;-46
2021/10/10 00:07:13;;;;;;;15.45;10.68;;;;;;;;;;5025737;28;20141;-42
2021/10/10 00:09:40;;;;;;;19.33;11.57;;;;;;;;;;5012970;28;20046;-43
2021/10/10 00:12:07;;;;;;;23.15;11.45;;;;;;;;;;5012705;28;20487;-42
2021/10/10 00:14:34;;;;;;;18.25;11.35;;;;;;;;;;5027560;28;20042;-44
2021/10/10 00:17:01;;;;;;;20.42;11.23;;;;;;;;;;5012891;28;20125;-46
2021/10/10 00:19:27;;;;;;;20.20;11.82;;;;;;;;;;5028170;28;20411;-46
2021/10/10 00:21:54;;;;;;;18.55;11.13;;;;;;;;;;5012882;28;20414;-42
2021/10/10 00:24:21;;;;;;;18.20;11.73;;;;;;;;;;5012522;28;20491;-43
2021/10/10 00:26:48;;;;;;;19.08;11.48;;;;;;;;;;5012703;28;20048;-46
2021/10/10 00:29:16;;;;;;;19.33;12.02;;;;;;;;;;5012335;28;20399;-47
2021/10/10 00:31:43;;;;;;;20.73;12.05;;;;;;;;;;5010760;28;20072;-44
2021/10/10 00:34:10;;;;;;;16.67;11.82;;;;;;;;;;5012275;28;20048;-44
2021/10/10 00:36:36;;;;;;;23.00;13.07;;;;;;;;;;5012395;28;20132;-41
2021/10/10 00:39:03;;;;;;;18.40;12.18;;;;;;;;;;5021485;28;20045;-42
2021/10/10 00:41:30;;;;;;;22.83;12.23;;;;;;;;;;5030799;28;20525;-43
2021/10/10 00:43:57;;;;;;;20.23;12.07;;;;;;;;;;5031748;28;20462;-45
2021/10/10 00:46:24;;;;;;;22.38;12.30;;;;;;;;;;5031869;28;20495;-42
2021/10/10 00:48:50;;;;;;;20.38;12.65;;;;;;;;;;5016872;28;20111;-45
2021/10/10 00:51:17;;;;;;;20.23;13.20;;;;;;;;;;5012112;28;20042;-42
2021/10/10 00:53:45;;;;;;;19.48;12.55;;;;;;;;;;5042081;28;20123;-44
2021/10/10 00:56:12;;;;;;;23.70;13.90;;;;;;;;;;5028217;28;20120;-46
2021/10/10 00:58:40;;;;;;;23.95;13.02;;;;;;;;;;5012005;28;20048;-45
2021/10/10 01:01:07;;;;;;;21.92;13.35;;;;;;;;;;5020826;28;20068;-43
2021/10/10 01:03:34;;;;;;;28.90;14.35;;;;;;;;;;5031251;28;20042;-43
2021/10/10 01:06:00;;;;;;;23.00;14.27;;;;;;;;;;5031660;28;20387;-45
2021/10/10 01:08:27;;;;;;;22.08;13.48;;;;;;;;;;5025437;28;20050;-45
2021/10/10 01:10:54;;;;;;;21.48;12.93;;;;;;;;;;5011940;28;20074;-43
2021/10/10 01:13:21;;;;;;;21.45;13.93;;;;;;;;;;5011631;28;20491;-42
2021/10/10 01:15:50;;;;;;;18.77;13.05;;;;;;;;;;5011779;28;20034;-44
2021/10/10 01:18:23;;;;;;;21.60;12.68;;;;;;;;;;5035637;28;20045;-42
2021/10/10 01:20:51;;;;;;;23.05;13.13;;;;;;;;;;5035841;28;20175;-41
2021/10/10 01:23:17;;;;;;;26.15;13.57;;;;;;;;;;5035763;28;20044;-46
2021/10/10 01:25:44;;;;;;;23.48;13.35;;;;;;;;;;5032069;28;20052;-43
2021/10/10 01:28:11;;;;;;;24.20;13.63;;;;;;;;;;5015997;28;20045;-43
2021/10/10 01:30:38;;;;;;;20.00;13.40;;;;;;;;;;5015870;28;20038;-45
2021/10/10 01:33:07;;;;;;;21.75;13.35;;;;;;;;;;5015643;28;20141;-42
2021/10/10 01:35:35;;;;;;;23.52;13.43;;;;;;;;;;5031272;28;20053;-44
2021/10/10 01:38:02;;;;;;;22.45;14.05;;;;;;;;;;5015810;28;20050;-42
2021/10/10 01:40:29;;;;;;;22.20;14.25;;;;;;;;;;5015835;28;20096;-42
2021/10/10 01:42:56;;;;;;;25.20;14.45;;;;;;;;;;5014321;28;20046;-46
2021/10/10 01:45:23;;;;;;;22.13;13.35;;;;;;;;;;5015353;28;20050;-43
2021/10/10 01:47:50;;;;;;;23.15;13.48;;;;;;;;;;5015685;28;20048;-45
2021/10/10 01:50:17;;;;;;;26.13;14.77;;;;;;;;;;5015557;28;20048;-45
2021/10/10 01:52:46;;;;;;;23.98;14.60;;;;;;;;;;5015217;28;20042;-45
2021/10/10 01:55:14;;;;;;;25.60;13.95;;;;;;;;;;5014963;28;20056;-45
2021/10/10 01:57:41;;;;;;;22.88;13.70;;;;;;;;;;5015292;28;20038;-44
2021/10/10 02:00:08;;;;;;;21.00;13.63;;;;;;;;;;5016316;28;20042;-44
2021/10/10 02:02:39;;;;;;;23.60;13.73;;;;;;;;;;5034807;28;20056;-48
2021/10/10 02:05:06;;;;;;;27.55;15.10;;;;;;;;;;5034638;28;20088;-48
2021/10/10 02:07:33;;;;;;;20.52;13.68;;;;;;;;;;5035122;28;20060;-45
2021/10/10 02:10:00;;;;;;;24.02;13.27;;;;;;;;;;5019398;28;20049;-45
2021/10/10 02:12:27;;;;;;;23.10;14.60;;;;;;;;;;5015187;28;20171;-44
2021/10/10 02:14:53;;;;;;;21.60;14.70;;;;;;;;;;5014876;28;20128;-44
2021/10/10 02:17:20;;;;;;;23.92;16.42;;;;;;;;;;5014804;28;20045;-46
2021/10/10 02:19:47;;;;;;;27.92;15.40;;;;;;;;;;5028899;28;20043;-48
2021/10/10 02:22:14;;;;;;;23.38;15.00;;;;;;;;;;5034566;28;20052;-47
2021/10/10 02:24:41;;;;;;;22.83;13.73;;;;;;;;;;5033308;28;20145;-49
2021/10/10 02:27:08;;;;;;;24.83;14.45;;;;;;;;;;5034655;28;20041;-44
2021/10/10 02:29:36;;;;;;;22.65;13.55;;;;;;;;;;5016186;28;20522;-44
2021/10/10 02:32:03;;;;;;;25.42;14.38;;;;;;;;;;5013520;28;20422;-43
2021/10/10 02:34:29;;;;;;;24.63;14.90;;;;;;;;;;5014500;28;20068;-43
2021/10/10 02:36:56;;;;;;;21.58;14.27;;;;;;;;;;5014598;28;20614;-44
2021/10/10 02:39:23;;;;;;;21.13;14.38;;;;;;;;;;5053104;22;20152;-46
2021/10/10 02:41:50;;;;;;;22.10;13.85;;;;;;;;;;5053612;28;20128;-44
2021/10/10 02:44:16;;;;;;;21.48;14.13;;;;;;;;;;5051499;28;20055;-44
2021/10/10 02:46:43;;;;;;;20.83;14.02;;;;;;;;;;5048301;28;20402;-46
2021/10/10 02:49:10;;;;;;;28.95;14.90;;;;;;;;;;5033325;28;20128;-47
2021/10/10 02:51:37;;;;;;;24.73;15.65;;;;;;;;;;5033334;28;20065;-43
2021/10/10 02:54:03;;;;;;;24.55;14.52;;;;;;;;;;5032662;28;20483;-44
2021/10/10 02:56:32;;;;;;;24.63;14.38;;;;;;;;;;5032888;28;20045;-43
2021/10/10 02:58:58;;;;;;;23.60;15.38;;;;;;;;;;5033029;28;20386;-44
2021/10/10 03:01:25;;;;;;;20.92;14.90;;;;;;;;;;5044635;28;20045;-43
2021/10/10 03:03:52;;;;;;;23.15;14.27;;;;;;;;;;5052246;28;20047;-43
2021/10/10 03:06:19;;;;;;;25.45;15.40;;;;;;;;;;5053164;28;20048;-44
2021/10/10 03:08:46;;;;;;;26.13;14.90;;;;;;;;;;5048744;28;20068;-44
2021/10/10 03:11:12;;;;;;;25.05;14.45;;;;;;;;;;5032866;28;20080;-43
2021/10/10 03:13:39;;;;;;;21.02;14.63;;;;;;;;;;5032121;28;20076;-44
2021/10/10 03:16:06;;;;;;;22.13;14.07;;;;;;;;;;5031477;28;20038;-44
2021/10/10 03:18:33;;;;;;;23.63;14.05;;;;;;;;;;5032567;28;20045;-43
2021/10/10 03:20:59;;;;;;;21.45;14.68;;;;;;;;;;5033176;28;20115;-43
2021/10/10 03:23:26;;;;;;;23.92;15.45;;;;;;;;;;5032189;28;20132;-44
2021/10/10 03:25:53;;;;;;;23.58;15.00;;;;;;;;;;5032501;28;20379;-43
2021/10/10 03:28:20;;;;;;;22.58;14.45;;;;;;;;;;5032656;28;20049;-43
2021/10/10 03:30:46;;;;;;;28.55;15.30;;;;;;;;;;5032237;28;20041;-44
2021/10/10 03:33:13;;;;;;;30.50;16.90;;;;;;;;;;5031907;28;20041;-45
2021/10/10 03:35:40;;;;;;;24.13;15.60;;;;;;;;;;5032447;28;20047;-46
2021/10/10 03:38:07;;;;;;;28.00;16.50;;;;;;;;;;5032114;28;20041;-43
2021/10/10 03:40:34;;;;;;;24.77;15.25;;;;;;;;;;5032422;28;20052;-46
2021/10/10 03:43:00;;;;;;;26.83;16.20;;;;;;;;;;5031117;28;20427;-44
2021/10/10 03:45:28;;;;;;;24.23;15.68;;;;;;;;;;5031980;28;20101;-43
2021/10/10 03:47:55;;;;;;;23.40;14.63;;;;;;;;;;5033023;28;20053;-46
2021/10/10 03:50:21;;;;;;;26.05;15.88;;;;;;;;;;5032606;28;20128;-44
2021/10/10 03:52:48;;;;;;;26.55;16.63;;;;;;;;;;5052125;28;20042;-43
2021/10/10 03:57:45;;;;;;;26.80;16.08;;;;;;;;;;5051871;28;20055;-44
2021/10/10 04:00:14;;;;;;;24.40;15.63;;;;;;;;;;5042230;28;20396;-43
2021/10/10 04:02:41;;;;;;;27.08;16.10;;;;;;;;;;5052495;28;20103;-43
2021/10/10 04:07:48;;;;;;;25.40;17.00;;;;;;;;;;5031643;28;20128;-43
2021/10/10 04:10:15;;;;;;;27.45;16.90;;;;;;;;;;5032054;28;20479;-45
2021/10/10 04:12:42;;;;;;;33.28;17.73;;;;;;;;;;5031736;28;20061;-45
2021/10/10 04:15:09;;;;;;;28.27;17.58;;;;;;;;;;5031035;28;20498;-43
2021/10/10 04:17:36;;;;;;;26.85;16.50;;;;;;;;;;5031489;28;20408;-44
2021/10/10 04:20:03;;;;;;;28.38;17.23;;;;;;;;;;5032314;28;20407;-44
2021/10/10 04:22:30;;;;;;;27.73;17.00;;;;;;;;;;5032525;28;20128;-44
2021/10/10 04:24:57;;;;;;;29.17;16.48;;;;;;;;;;5031900;28;20054;-44
2021/10/10 04:27:24;;;;;;;27.08;16.75;;;;;;;;;;5032374;28;20510;-44
2021/10/10 04:29:51;;;;;;;29.50;15.60;;;;;;;;;;5032966;28;20049;-46
2021/10/10 04:32:17;;;;;;;23.75;16.05;;;;;;;;;;5032457;28;20047;-44
2021/10/10 04:34:44;;;;;;;27.35;17.10;;;;;;;;;;5031754;28;20046;-44
2021/10/10 04:37:11;;;;;;;27.58;17.50;;;;;;;;;;5032436;28;20087;-44
2021/10/10 04:39:38;;;;;;;29.80;16.88;;;;;;;;;;5032194;28;20052;-44
2021/10/10 04:42:05;;;;;;;27.30;16.08;;;;;;;;;;5032207;28;20075;-45
2021/10/10 04:44:33;;;;;;;25.67;15.75;;;;;;;;;;5031874;28;20821;-44
2021/10/10 04:46:59;;;;;;;23.33;16.77;;;;;;;;;;5032239;28;20504;-45
2021/10/10 04:49:26;;;;;;;24.83;15.35;;;;;;;;;;5032035;28;20119;-45
2021/10/10 04:51:53;;;;;;;29.58;17.27;;;;;;;;;;5031657;28;20045;-46
2021/10/10 04:54:20;;;;;;;29.10;17.95;;;;;;;;;;5031409;28;20081;-46
2021/10/10 04:56:46;;;;;;;28.77;16.95;;;;;;;;;;5032149;28;20395;-46
2021/10/10 04:59:13;;;;;;;25.55;16.35;;;;;;;;;;5030432;28;20052;-46
2021/10/10 05:01:40;;;;;;;28.63;17.17;;;;;;;;;;5045495;28;20570;-46
2021/10/10 05:04:07;;;;;;;28.70;17.55;;;;;;;;;;5051209;28;20049;-46
2021/10/10 05:06:34;;;;;;;33.67;17.55;;;;;;;;;;5051098;28;20082;-47
2021/10/10 05:09:00;;;;;;;25.40;16.45;;;;;;;;;;5032023;28;20479;-45
2021/10/10 05:11:27;;;;;;;27.92;16.48;;;;;;;;;;5031933;28;20041;-46
2021/10/10 05:13:54;;;;;;;27.05;17.10;;;;;;;;;;5033652;28;20103;-44
2021/10/10 05:16:21;;;;;;;24.75;16.33;;;;;;;;;;5053113;28;20081;-44
2021/10/10 05:18:47;;;;;;;25.42;16.95;;;;;;;;;;5051999;28;20394;-46
2021/10/10 05:21:16;;;;;;;26.83;17.55;;;;;;;;;;5051792;28;20508;-44
2021/10/10 05:23:43;;;;;;;25.90;16.75;;;;;;;;;;5049889;28;20047;-45
2021/10/10 05:26:11;;;;;;;28.23;17.98;;;;;;;;;;5032326;28;20099;-44
2021/10/10 05:28:38;;;;;;;27.92;17.05;;;;;;;;;;5031571;28;20132;-44
2021/10/10 05:31:04;;;;;;;27.38;16.23;;;;;;;;;;5032090;28;20037;-46
2021/10/10 05:33:31;;;;;;;28.13;16.80;;;;;;;;;;5038739;28;20462;-45
2021/10/10 05:35:58;;;;;;;26.05;17.08;;;;;;;;;;5051864;28;20081;-46
2021/10/10 05:38:26;;;;;;;26.50;15.75;;;;;;;;;;5048901;28;20037;-45
2021/10/10 05:40:53;;;;;;;26.42;15.68;;;;;;;;;;5031939;28;20488;-44
2021/10/10 05:43:20;;;;;;;27.10;16.40;;;;;;;;;;5031536;28;20519;-46
2021/10/10 05:45:46;;;;;;;27.75;15.75;;;;;;;;;;5031577;28;20128;-45
2021/10/10 05:48:13;;;;;;;30.73;17.30;;;;;;;;;;5039468;28;20107;-47
2021/10/10 05:50:40;;;;;;;23.45;15.55;;;;;;;;;;5030564;28;20052;-46
2021/10/10 05:53:08;;;;;;;26.40;16.08;;;;;;;;;;5031289;28;20073;-46
2021/10/10 05:55:38;;;;;;;24.02;15.77;;;;;;;;;;5031949;28;20132;-44
2021/10/10 05:58:07;;;;;;;25.10;15.63;;;;;;;;;;5031499;28;20105;-44
2021/10/10 06:00:34;;;;;;;24.40;16.35;;;;;;;;;;5045532;28;20087;-43
2021/10/10 06:03:05;;;;;;;24.52;15.73;;;;;;;;;;5051322;28;20041;-45
2021/10/10 06:05:32;;;;;;;31.83;16.85;;;;;;;;;;5055206;28;20071;-46
2021/10/10 06:07:59;;;;;;;26.38;16.25;;;;;;;;;;5047261;28;20033;-48
2021/10/10 06:10:26;;;;;;;25.98;15.65;;;;;;;;;;5035799;28;20045;-43
2021/10/10 06:12:53;;;;;;;25.13;16.10;;;;;;;;;;5035504;28;20050;-44
2021/10/10 06:15:20;;;;;;;24.33;15.65;;;;;;;;;;5035290;28;20050;-44
2021/10/10 06:17:46;;;;;;;25.02;16.48;;;;;;;;;;5034894;28;20053;-43
2021/10/10 06:20:13;;;;;;;23.65;15.70;;;;;;;;;;5035141;28;20480;-44
2021/10/10 06:22:40;;;;;;;24.77;15.73;;;;;;;;;;5034906;28;20033;-45
2021/10/10 06:25:07;;;;;;;25.35;15.77;;;;;;;;;;5034634;28;20049;-43
2021/10/10 06:27:34;;;;;;;24.88;15.18;;;;;;;;;;5034256;28;20498;-45
2021/10/10 06:30:01;;;;;;;27.48;14.18;;;;;;;;;;5034920;28;20589;-43
2021/10/10 06:32:28;;;;;;;23.58;14.68;;;;;;;;;;5034178;28;20072;-44
2021/10/10 06:34:54;;;;;;;23.67;14.98;;;;;;;;;;5033653;28;20458;-44
2021/10/10 06:37:21;;;;;;;23.90;15.07;;;;;;;;;;5033819;28;20479;-46
2021/10/10 06:39:48;;;;;;;22.92;13.90;;;;;;;;;;5033633;28;20042;-43
2021/10/10 06:42:16;;;;;;;22.25;13.52;;;;;;;;;;5033996;28;20466;-43
2021/10/10 06:44:43;;;;;;;25.75;14.63;;;;;;;;;;5033652;28;20072;-45
2021/10/10 06:47:10;;;;;;;22.42;14.18;;;;;;;;;;5033661;28;20072;-43
2021/10/10 06:49:37;;;;;;;22.85;13.88;;;;;;;;;;5032449;28;20049;-45
2021/10/10 06:52:04;;;;;;;23.23;13.57;;;;;;;;;;5038899;28;20069;-44
2021/10/10 06:54:30;;;;;;;23.05;13.57;;;;;;;;;;5051076;28;20493;-42
2021/10/10 06:56:57;;;;;;;23.30;13.73;;;;;;;;;;5053273;28;20071;-46
2021/10/10 06:59:24;;;;;;;29.52;13.68;;;;;;;;;;5043211;28;20033;-45
2021/10/10 07:01:50;;;;;;;20.67;13.27;;;;;;;;;;5053333;28;20041;-46
2021/10/10 07:04:17;;;;;;;20.83;13.48;;;;;;;;;;5053268;28;20123;-46
2021/10/10 07:06:44;;;;;;;24.42;13.75;;;;;;;;;;5052023;28;20128;-47
2021/10/10 07:09:14;;;;;;;22.90;14.35;;;;;;;;;;5044570;28;20045;-45
2021/10/10 07:11:41;;;;;;;22.98;14.82;;;;;;;;;;5044476;28;20136;-47
2021/10/10 07:14:08;;;;;;;22.67;15.07;;;;;;;;;;5057819;28;20131;-44
2021/10/10 07:16:35;;;;;;;22.52;13.73;;;;;;;;;;5073229;28;20127;-47
2021/10/10 07:19:03;;;;;;;22.13;13.73;;;;;;;;;;5054130;28;20045;-44
2021/10/10 07:21:56;;;;;;;22.67;13.52;;;;;;;;;;5054853;28;20489;-47
2021/10/10 07:27:08;;;;;;;21.25;12.73;;;;;;;;;;5047219;28;20045;-45
2021/10/10 07:29:35;;;;;;;24.73;14.75;;;;;;;;;;5034653;28;20073;-44
2021/10/10 07:32:03;;;;;;;23.52;12.88;;;;;;;;;;5032785;28;20051;-41
2021/10/10 07:34:29;;;;;;;23.52;13.30;;;;;;;;;;5053649;28;20076;-44
2021/10/10 07:36:56;;;;;;;22.35;13.90;;;;;;;;;;5072775;28;20068;-46
2021/10/10 07:39:23;;;;;;;24.73;13.48;;;;;;;;;;5049839;28;20128;-45
2021/10/10 07:41:50;;;;;;;24.00;13.82;;;;;;;;;;5031939;28;20073;-47
2021/10/10 07:44:17;;;;;;;20.95;13.40;;;;;;;;;;5032647;28;20041;-44
2021/10/10 07:46:44;;;;;;;23.67;14.00;;;;;;;;;;5045299;28;20042;-43
2021/10/10 07:49:11;;;;;;;25.88;12.63;;;;;;;;;;5043950;28;20048;-48
2021/10/10 07:51:38;;;;;;;24.00;13.93;;;;;;;;;;5052361;28;20045;-44
2021/10/10 07:54:05;;;;;;;24.35;13.13;;;;;;;;;;5052117;28;20099;-46
2021/10/10 07:56:32;;;;;;;21.42;13.02;;;;;;;;;;5036123;28;20124;-48
2021/10/10 07:58:59;;;;;;;20.73;13.98;;;;;;;;;;5032187;28;20495;-45
2021/10/10 08:01:26;;;;;;;22.73;13.73;;;;;;;;;;5032336;28;20079;-44
2021/10/10 08:03:53;;;;;;;21.85;13.40;;;;;;;;;;5031889;28;20045;-46
2021/10/10 08:06:20;;;;;;;23.42;14.40;;;;;;;;;;5039914;28;20049;-45
2021/10/10 08:08:48;;;;;;;20.52;13.05;;;;;;;;;;5051269;28;20052;-46
2021/10/10 08:11:14;;;;;;;22.75;14.10;;;;;;;;;;5051747;28;20041;-44
2021/10/10 08:13:41;;;;;;;24.08;12.95;;;;;;;;;;5051742;28;20132;-44
2021/10/10 08:16:08;;;;;;;21.73;13.77;;;;;;;;;;5051046;28;20041;-45
2021/10/10 08:18:35;;;;;;;23.98;13.63;;;;;;;;;;5052397;28;20044;-45
2021/10/10 08:21:02;;;;;;;25.20;13.90;;;;;;;;;;5052557;28;20068;-44
2021/10/10 08:23:29;;;;;;;21.98;13.68;;;;;;;;;;5052666;28;20041;-47
2021/10/10 08:25:55;;;;;;;22.17;14.10;;;;;;;;;;5044908;28;20067;-45
2021/10/10 08:28:24;;;;;;;20.75;13.52;;;;;;;;;;5052768;28;20453;-44
2021/10/10 08:30:51;;;;;;;24.55;13.55;;;;;;;;;;5039092;28;20387;-43
2021/10/10 08:33:18;;;;;;;21.45;13.18;;;;;;;;;;5033551;28;20510;-45
2021/10/10 08:35:45;;;;;;;23.30;14.30;;;;;;;;;;5039104;28;20033;-44
2021/10/10 08:38:24;;;;;;;20.02;13.85;;;;;;;;;;5047305;28;20037;-45
2021/10/10 08:40:53;;;;;;;22.10;13.55;;;;;;;;;;5010538;28;20384;-43
2021/10/10 08:43:21;;;;;;;30.63;14.23;;;;;;;;;;5026279;28;20049;-44
2021/10/10 08:45:48;;;;;;;23.98;14.00;;;;;;;;;;5011335;28;20129;-45
2021/10/10 08:48:19;;;;;;;19.58;13.50;;;;;;;;;;5020981;28;20041;-44
2021/10/10 08:50:46;;;;;;;23.48;14.23;;;;;;;;;;5018533;28;20046;-43
2021/10/10 08:53:18;;;;;;;20.55;13.93;;;;;;;;;;5028012;28;20064;-43
2021/10/10 08:55:45;;;;;;;22.33;13.32;;;;;;;;;;5019971;28;20091;-45
2021/10/10 08:58:14;;;;;;;23.23;13.63;;;;;;;;;;5021473;28;20404;-46
2021/10/10 09:00:48;;;;;;;21.63;13.25;;;;;;;;;;5023785;28;20065;-43
2021/10/10 09:03:16;;;;;;;22.42;13.68;;;;;;;;;;5029779;28;20561;-43
2021/10/10 09:05:51;;;;;;;21.02;13.40;;;;;;;;;;5017495;28;20037;-44
2021/10/10 09:08:18;;;;;;;20.50;13.25;;;;;;;;;;5023604;28;20038;-43
2021/10/10 09:10:55;;;;;;;21.10;13.93;;;;;;;;;;5023156;28;20078;-46
2021/10/10 09:13:28;;;;;;;22.05;14.57;;;;;;;;;;5016431;28;20132;-43
2021/10/10 09:15:55;;;;;;;22.23;14.38;;;;;;;;;;5027215;28;20037;-45
2021/10/10 09:18:31;;;;;;;26.30;14.23;;;;;;;;;;5010834;28;20049;-44
2021/10/10 09:21:10;;;;;;;21.35;14.88;;;;;;;;;;4991761;28;20054;-44
2021/10/10 09:23:39;;;;;;;20.27;13.27;;;;;;;;;;5008013;28;20046;-43
2021/10/10 09:26:06;;;;;;;23.63;14.25;;;;;;;;;;5010528;28;20092;-47
2021/10/10 09:28:34;;;;;;;20.27;13.20;;;;;;;;;;5018423;28;20502;-45
2021/10/10 09:31:02;;;;;;;21.42;13.60;;;;;;;;;;5012666;28;20492;-44
2021/10/10 09:33:39;;;;;;;22.77;14.25;;;;;;;;;;5010812;28;20064;-45
2021/10/10 09:36:10;;;;;;;22.83;14.75;;;;;;;;;;5011744;28;20052;-44
2021/10/10 09:38:47;;;;;;;22.48;14.20;;;;;;;;;;5028756;28;20129;-47
2021/10/10 09:41:22;;;;;;;23.65;13.80;;;;;;;;;;5012908;28;20136;-45
2021/10/10 09:44:04;;;;;;;21.08;13.68;;;;;;;;;;5012394;28;20076;-46
2021/10/10 09:46:31;;;;;;;21.98;13.82;;;;;;;;;;5008383;28;20065;-46
2021/10/10 09:49:18;;;;;;;25.05;13.70;;;;;;;;;;5048241;28;20124;-44
2021/10/10 09:51:45;;;;;;;25.15;14.75;;;;;;;;;;5016996;28;20450;-43
2021/10/10 09:54:12;;;;;;;23.05;14.05;;;;;;;;;;5018977;28;20566;-43
2021/10/10 09:56:59;;;;;;;26.75;13.25;;;;;;;;;;5003647;28;20054;-48
2021/10/10 09:59:27;;;;;;;20.77;14.30;;;;;;;;;;5009848;28;20069;-44
2021/10/10 10:01:54;;;;;;;24.65;14.85;;;;;;;;;;4978691;28;20079;-45
2021/10/10 10:04:21;;;;;;;26.45;14.50;;;;;;;;;;4995464;28;20053;-43
2021/10/10 10:06:50;;;;;;;24.25;14.77;;;;;;;;;;5023557;28;20143;-44
2021/10/10 10:09:17;;;;;;;21.85;13.95;;;;;;;;;;5008814;28;20503;-46
2021/10/10 10:11:45;;;;;;;27.95;14.32;;;;;;;;;;4995779;28;20054;-45
2021/10/10 10:14:15;;;;;;;24.52;14.43;;;;;;;;;;5000305;28;20124;-50
2021/10/10 10:16:42;;;;;;;24.05;14.88;;;;;;;;;;5009826;28;20298;-45
2021/10/10 10:19:14;;;;;;;20.58;13.23;;;;;;;;;;5011465;28;20225;-45
2021/10/10 10:21:44;;;;;;;21.15;14.02;;;;;;;;;;5014744;28;20049;-44
2021/10/10 10:24:12;;;;;;;19.40;13.98;;;;;;;;;;5014678;28;20077;-46
2021/10/10 10:26:39;;;;;;;20.95;13.50;;;;;;;;;;5011490;28;20040;-43
2021/10/10 10:29:18;;;;;;;20.80;13.13;;;;;;;;;;4995072;28;20137;-46
2021/10/10 10:31:46;;;;;;;21.02;13.55;;;;;;;;;;5009908;28;20067;-46
2021/10/10 10:34:25;;;;;;;20.45;13.55;;;;;;;;;;5014695;28;20048;-46
2021/10/10 10:36:52;;;;;;;20.73;13.13;;;;;;;;;;5013933;28;20046;-47
2021/10/10 10:39:34;;;;;;;20.27;12.43;;;;;;;;;;5010711;28;20133;-42
2021/10/10 10:42:23;;;;;;;18.08;12.57;;;;;;;;;;5013245;28;20034;-42
2021/10/10 10:44:53;;;;;;;22.77;13.00;;;;;;;;;;5013905;28;20045;-45
2021/10/10 10:47:21;;;;;;;19.50;12.68;;;;;;;;;;5006440;28;20042;-45
2021/10/10 10:49:55;;;;;;;20.77;12.95;;;;;;;;;;5012228;28;20034;-45
2021/10/10 10:52:32;;;;;;;23.38;12.93;;;;;;;;;;5013298;28;20061;-43
2021/10/10 10:55:05;;;;;;;18.85;13.02;;;;;;;;;;5013503;28;20036;-45
2021/10/10 10:57:33;;;;;;;20.08;12.25;;;;;;;;;;5012980;28;20411;-44
2021/10/10 11:00:03;;;;;;;18.30;13.05;;;;;;;;;;5006213;28;20403;-43
2021/10/10 11:02:49;;;;;;;21.88;12.98;;;;;;;;;;5014161;28;20042;-43
2021/10/10 11:05:34;;;;;;;21.23;12.85;;;;;;;;;;5014090;28;20482;-46
2021/10/10 11:08:05;;;;;;;15.30;11.88;;;;;;;;;;5004758;28;20092;-47
2021/10/10 11:10:34;;;;;;;17.88;11.43;;;;;;;;;;4994555;28;20038;-48
2021/10/10 11:13:06;;;;;;;19.27;11.00;;;;;;;;;;5002613;28;20038;-45
2021/10/10 11:15:48;;;;;;;15.85;11.75;;;;;;;;;;5006963;28;20049;-44
2021/10/10 11:18:18;;;;;;;17.83;11.68;;;;;;;;;;4994096;28;20093;-45
2021/10/10 11:20:52;;;;;;;19.45;12.75;;;;;;;;;;5032074;28;20065;-46
2021/10/10 11:23:18;;;;;;;19.20;11.52;;;;;;;;;;5032802;28;20045;-48
2021/10/10 11:25:49;;;;;;;18.33;11.05;;;;;;;;;;5012482;28;20050;-47
2021/10/10 11:28:19;;;;;;;16.20;11.55;;;;;;;;;;4994422;28;20408;-42
2021/10/10 11:30:47;;;;;;;18.17;11.90;;;;;;;;;;4999570;28;20057;-42
2021/10/10 11:33:15;;;;;;;19.52;11.98;;;;;;;;;;5033380;28;20045;-46
2021/10/10 11:35:44;;;;;;;21.60;11.73;;;;;;;;;;5033552;28;20046;-46
2021/10/10 11:38:12;;;;;;;15.95;11.30;;;;;;;;;;5011877;28;20565;-44
2021/10/10 11:40:59;;;;;;;18.92;11.68;;;;;;;;;;5013147;28;20160;-43
2021/10/10 11:43:25;;;;;;;18.70;13.20;;;;;;;;;;5012714;28;20384;-47
2021/10/10 11:45:56;;;;;;;15.02;11.70;;;;;;;;;;5013008;28;20052;-46
2021/10/10 11:48:35;;;;;;;17.63;11.05;;;;;;;;;;5005622;28;20049;-47
2021/10/10 11:51:03;;;;;;;17.40;10.27;;;;;;;;;;5028392;28;20061;-48
2021/10/10 11:53:38;;;;;;;14.10;9.73;;;;;;;;;;5027530;28;20132;-46
2021/10/10 11:56:04;;;;;;;16.55;11.60;;;;;;;;;;5033894;28;20279;-47
2021/10/10 11:58:32;;;;;;;98.82;74.00;;;;;;;;;;5003862;28;20045;-48
2021/10/10 12:01:10;;;;;;;19.98;12.85;;;;;;;;;;5006435;28;20037;-46
2021/10/10 12:03:45;;;;;;;15.15;11.38;;;;;;;;;;4994846;28;20641;-46
2021/10/10 12:06:16;;;;;;;12.77;9.80;;;;;;;;;;5012844;28;20097;-47
2021/10/10 12:08:43;;;;;;;12.85;9.38;;;;;;;;;;5011201;28;20475;-48
2021/10/10 12:11:10;;;;;;;14.00;9.00;;;;;;;;;;5013195;28;20046;-45
2021/10/10 12:13:50;;;;;;;11.90;8.10;;;;;;;;;;5013344;28;20137;-46
2021/10/10 12:16:17;;;;;;;13.05;8.20;;;;;;;;;;5022724;28;20479;-48
2021/10/10 12:18:44;;;;;;;15.13;8.60;;;;;;;;;;5009508;28;20128;-47
2021/10/10 12:21:17;;;;;;;13.48;8.48;;;;;;;;;;5032451;28;20112;-47
2021/10/10 12:23:44;;;;;;;14.43;10.88;;;;;;;;;;5018859;28;20125;-47
2021/10/10 12:26:11;;;;;;;17.27;10.82;;;;;;;;;;5028220;28;20124;-46
2021/10/10 12:28:38;;;;;;;13.40;10.88;;;;;;;;;;5001682;28;20045;-49
2021/10/10 12:31:05;;;;;;;13.15;8.75;;;;;;;;;;5004587;28;20414;-49
2021/10/10 12:33:42;;;;;;;12.50;8.68;;;;;;;;;;5022867;28;20052;-44
2021/10/10 12:36:14;;;;;;;11.30;8.63;;;;;;;;;;5016961;28;20565;-46
2021/10/10 12:38:49;;;;;;;13.70;7.47;;;;;;;;;;5002488;28;20053;-46
2021/10/10 12:41:18;;;;;;;14.50;7.30;;;;;;;;;;5025030;28;20037;-46
2021/10/10 12:43:46;;;;;;;9.80;6.90;;;;;;;;;;5012141;28;20410;-44
2021/10/10 12:46:16;;;;;;;11.40;7.53;;;;;;;;;;4998499;28;20039;-44
2021/10/10 12:48:54;;;;;;;14.65;7.35;;;;;;;;;;4992865;28;20097;-47
2021/10/10 12:51:21;;;;;;;10.88;7.65;;;;;;;;;;4992612;28;20133;-51
2021/10/10 12:53:48;;;;;;;11.52;7.30;;;;;;;;;;4992017;28;20046;-50
2021/10/10 12:56:16;;;;;;;13.63;9.25;;;;;;;;;;4992628;28;20054;-51
2021/10/10 12:58:43;;;;;;;13.82;8.52;;;;;;;;;;4992751;28;20049;-49
2021/10/10 13:01:10;;;;;;;15.02;8.02;;;;;;;;;;4992356;28;20038;-46
2021/10/10 13:03:37;;;;;;;9.90;6.70;;;;;;;;;;4992239;28;20089;-47
2021/10/10 13:06:04;;;;;;;13.40;8.70;;;;;;;;;;4992434;28;20499;-46
2021/10/10 13:08:30;;;;;;;18.90;9.00;;;;;;;;;;4992313;28;20042;-50
2021/10/10 13:10:57;;;;;;;12.15;8.02;;;;;;;;;;4992844;28;20048;-48
2021/10/10 13:13:24;;;;;;;11.82;8.50;;;;;;;;;;4991732;28;20050;-48
2021/10/10 13:15:51;;;;;;;12.40;8.90;;;;;;;;;;4992262;28;20038;-47
2021/10/10 13:18:18;;;;;;;11.38;8.32;;;;;;;;;;4990895;28;20427;-49
2021/10/10 13:20:45;;;;;;;12.50;7.60;;;;;;;;;;4992384;28;20050;-47
2021/10/10 13:23:11;;;;;;;11.73;8.80;;;;;;;;;;4992161;28;20457;-44
2021/10/10 13:25:38;;;;;;;10.60;8.35;;;;;;;;;;4992112;28;20038;-44
2021/10/10 13:28:05;;;;;;;10.32;7.45;;;;;;;;;;4992021;28;20467;-44
2021/10/10 13:30:32;;;;;;;9.48;6.50;;;;;;;;;;5004834;28;20045;-46
2021/10/10 13:32:59;;;;;;;13.77;7.20;;;;;;;;;;5010686;28;20073;-44
2021/10/10 13:35:25;;;;;;;11.77;7.43;;;;;;;;;;5011753;28;20046;-46
2021/10/10 13:37:52;;;;;;;11.93;7.72;;;;;;;;;;4999899;28;20407;-47
2021/10/10 13:40:28;;;;;;;11.38;7.70;;;;;;;;;;4992122;28;20052;-47
2021/10/10 13:42:54;;;;;;;19.67;12.88;;;;;;;;;;4992000;28;20046;-50
2021/10/10 13:45:21;;;;;;;13.82;9.85;;;;;;;;;;4990485;28;20034;-47
2021/10/10 13:47:48;;;;;;;7.53;5.57;;;;;;;;;;4992407;28;20049;-47
2021/10/10 13:50:15;;;;;;;8.57;5.20;;;;;;;;;;4991618;28;20049;-45
2021/10/10 13:52:42;;;;;;;7.63;5.20;;;;;;;;;;4993148;28;20043;-46
2021/10/10 13:55:09;;;;;;;8.52;5.70;;;;;;;;;;4991045;28;20420;-50
2021/10/10 13:57:38;;;;;;;10.90;5.70;;;;;;;;;;4991314;28;20070;-44
2021/10/10 14:00:07;;;;;;;10.98;5.40;;;;;;;;;;4991848;28;20042;-44
2021/10/10 14:02:36;;;;;;;11.48;6.20;;;;;;;;;;4991863;28;20042;-44
2021/10/10 14:05:03;;;;;;;11.82;5.68;;;;;;;;;;4991540;28;20049;-48
2021/10/10 14:07:29;;;;;;;9.95;5.90;;;;;;;;;;4991781;28;20459;-44
2021/10/10 14:09:56;;;;;;;13.98;6.55;;;;;;;;;;4991692;28;20160;-44
2021/10/10 14:12:27;;;;;;;10.57;5.97;;;;;;;;;;4991734;28;20050;-43
2021/10/10 14:14:55;;;;;;;11.88;5.47;;;;;;;;;;4991513;28;20052;-45
2021/10/10 14:17:22;;;;;;;10.52;6.05;;;;;;;;;;4991673;28;20049;-45
2021/10/10 14:19:49;;;;;;;9.10;5.35;;;;;;;;;;4991758;28;20035;-43
2021/10/10 14:22:17;;;;;;;11.77;6.78;;;;;;;;;;4992898;28;20129;-43
2021/10/10 14:24:44;;;;;;;9.95;6.25;;;;;;;;;;4993263;28;20112;-43
2021/10/10 14:27:11;;;;;;;11.90;6.75;;;;;;;;;;4995510;28;20042;-45
2021/10/10 14:29:38;;;;;;;11.35;6.30;;;;;;;;;;4995122;28;20053;-46
2021/10/10 14:32:05;;;;;;;11.10;6.88;;;;;;;;;;4995292;28;20141;-46
2021/10/10 14:34:32;;;;;;;11.82;6.38;;;;;;;;;;4994927;28;20385;-45